Terminal Aerodrome Forecast
Issued by NWS

Home | Current Version | Previous Version | Text Only | Print | Product List | Glossary On
Versions: 1 2 3 4 5 6 7 8 9 10 11 12 13 14 15
000
FTUS45 KFGZ 222000 AAA
TAFPGA
TAF AMD
KPGA 222027Z 2220/2318 03006KT P6SM VCSH SCT060 BKN120
     FM222300 23009KT P6SM SCT090=

USA.gov is the U.S. government's official web portal to all federal, state and local government web resources and services.